sensor_id;sensor_type;location;lat;lon;timestamp;P1;durP1;ratioP1;P2;durP2;ratioP2
45322;SDS011;31382;50.200;8.674;2023-04-24T00:02:05;2.45;;;0.30;;
45322;SDS011;31382;50.200;8.674;2023-04-24T00:07:08;0.30;;;0.20;;
45322;SDS011;31382;50.200;8.674;2023-04-24T00:12:09;3.03;;;0.30;;
45322;SDS011;31382;50.200;8.674;2023-04-24T00:17:11;1.50;;;0.40;;
45322;SDS011;31382;50.200;8.674;2023-04-24T00:22:12;1.40;;;0.20;;
45322;SDS011;31382;50.200;8.674;2023-04-24T00:27:15;7.50;;;0.30;;
45322;SDS011;31382;50.200;8.674;2023-04-24T00:32:16;1.02;;;0.20;;
45322;SDS011;31382;50.200;8.674;2023-04-24T00:37:19;2.35;;;0.45;;
45322;SDS011;31382;50.200;8.674;2023-04-24T00:42:20;2.30;;;0.30;;
45322;SDS011;31382;50.200;8.674;2023-04-24T00:47:22;0.75;;;0.30;;
45322;SDS011;31382;50.200;8.674;2023-04-24T00:52:23;0.73;;;0.50;;
45322;SDS011;31382;50.200;8.674;2023-04-24T00:57:25;1.80;;;0.30;;
45322;SDS011;31382;50.200;8.674;2023-04-24T01:02:27;0.30;;;0.20;;
45322;SDS011;31382;50.200;8.674;2023-04-24T01:07:29;3.03;;;0.30;;
45322;SDS011;31382;50.200;8.674;2023-04-24T01:12:30;1.15;;;0.30;;
45322;SDS011;31382;50.200;8.674;2023-04-24T01:17:32;2.25;;;0.30;;
45322;SDS011;31382;50.200;8.674;2023-04-24T01:22:34;2.40;;;0.30;;
45322;SDS011;31382;50.200;8.674;2023-04-24T01:27:35;4.88;;;0.40;;
45322;SDS011;31382;50.200;8.674;2023-04-24T01:32:37;4.15;;;0.30;;
45322;SDS011;31382;50.200;8.674;2023-04-24T01:37:39;1.88;;;0.22;;
45322;SDS011;31382;50.200;8.674;2023-04-24T01:42:41;2.08;;;0.30;;
45322;SDS011;31382;50.200;8.674;2023-04-24T01:47:43;2.00;;;0.30;;
45322;SDS011;31382;50.200;8.674;2023-04-24T01:52:45;0.70;;;0.32;;
45322;SDS011;31382;50.200;8.674;2023-04-24T01:57:46;0.40;;;0.20;;
45322;SDS011;31382;50.200;8.674;2023-04-24T02:02:48;2.45;;;0.38;;
45322;SDS011;31382;50.200;8.674;2023-04-24T02:07:50;3.22;;;0.30;;
45322;SDS011;31382;50.200;8.674;2023-04-24T02:12:51;0.88;;;0.30;;
45322;SDS011;31382;50.200;8.674;2023-04-24T02:17:53;2.67;;;0.43;;
45322;SDS011;31382;50.200;8.674;2023-04-24T02:22:54;1.27;;;0.30;;
45322;SDS011;31382;50.200;8.674;2023-04-24T02:27:56;1.05;;;0.38;;
45322;SDS011;31382;50.200;8.674;2023-04-24T02:32:57;3.33;;;0.40;;
45322;SDS011;31382;50.200;8.674;2023-04-24T02:37:58;5.22;;;0.28;;
45322;SDS011;31382;50.200;8.674;2023-04-24T02:43:00;1.48;;;0.30;;
45322;SDS011;31382;50.200;8.674;2023-04-24T02:48:01;1.17;;;0.30;;
45322;SDS011;31382;50.200;8.674;2023-04-24T02:53:03;1.35;;;0.25;;
45322;SDS011;31382;50.200;8.674;2023-04-24T02:58:04;2.15;;;0.35;;
45322;SDS011;31382;50.200;8.674;2023-04-24T03:03:06;2.10;;;0.70;;
45322;SDS011;31382;50.200;8.674;2023-04-24T03:08:08;2.25;;;0.30;;
45322;SDS011;31382;50.200;8.674;2023-04-24T03:13:09;0.95;;;0.40;;
45322;SDS011;31382;50.200;8.674;2023-04-24T03:18:11;0.60;;;0.30;;
45322;SDS011;31382;50.200;8.674;2023-04-24T03:23:12;2.95;;;0.45;;
45322;SDS011;31382;50.200;8.674;2023-04-24T03:28:14;0.80;;;0.30;;
45322;SDS011;31382;50.200;8.674;2023-04-24T03:33:15;3.47;;;0.45;;
45322;SDS011;31382;50.200;8.674;2023-04-24T03:38:16;0.40;;;0.30;;
45322;SDS011;31382;50.200;8.674;2023-04-24T03:43:18;1.45;;;0.30;;
45322;SDS011;31382;50.200;8.674;2023-04-24T03:48:19;1.27;;;0.65;;
45322;SDS011;31382;50.200;8.674;2023-04-24T03:53:21;1.48;;;0.40;;
45322;SDS011;31382;50.200;8.674;2023-04-24T03:58:22;1.83;;;0.50;;
45322;SDS011;31382;50.200;8.674;2023-04-24T04:03:24;2.30;;;0.47;;
45322;SDS011;31382;50.200;8.674;2023-04-24T04:08:26;3.00;;;0.40;;
45322;SDS011;31382;50.200;8.674;2023-04-24T04:13:28;1.45;;;0.40;;
45322;SDS011;31382;50.200;8.674;2023-04-24T04:18:29;1.00;;;0.35;;
45322;SDS011;31382;50.200;8.674;2023-04-24T04:23:30;0.70;;;0.30;;
45322;SDS011;31382;50.200;8.674;2023-04-24T04:28:33;1.02;;;0.40;;
45322;SDS011;31382;50.200;8.674;2023-04-24T04:33:35;0.80;;;0.40;;
45322;SDS011;31382;50.200;8.674;2023-04-24T04:38:39;1.25;;;0.40;;
45322;SDS011;31382;50.200;8.674;2023-04-24T04:43:43;0.98;;;0.60;;
45322;SDS011;31382;50.200;8.674;2023-04-24T04:48:44;1.58;;;0.73;;
45322;SDS011;31382;50.200;8.674;2023-04-24T04:53:46;0.47;;;0.30;;
45322;SDS011;31382;50.200;8.674;2023-04-24T04:58:48;2.55;;;0.40;;
45322;SDS011;31382;50.200;8.674;2023-04-24T05:03:49;3.50;;;0.45;;
45322;SDS011;31382;50.200;8.674;2023-04-24T05:08:51;1.80;;;0.40;;
45322;SDS011;31382;50.200;8.674;2023-04-24T05:13:52;1.60;;;0.30;;
45322;SDS011;31382;50.200;8.674;2023-04-24T05:18:53;2.58;;;0.50;;
45322;SDS011;31382;50.200;8.674;2023-04-24T05:23:55;1.90;;;0.30;;
45322;SDS011;31382;50.200;8.674;2023-04-24T05:28:56;0.30;;;0.30;;
45322;SDS011;31382;50.200;8.674;2023-04-24T05:33:57;3.03;;;0.50;;
45322;SDS011;31382;50.200;8.674;2023-04-24T05:38:59;2.25;;;0.50;;
45322;SDS011;31382;50.200;8.674;2023-04-24T05:44:00;2.55;;;1.27;;
45322;SDS011;31382;50.200;8.674;2023-04-24T05:49:02;1.50;;;0.70;;
45322;SDS011;31382;50.200;8.674;2023-04-24T05:54:03;2.40;;;0.60;;
45322;SDS011;31382;50.200;8.674;2023-04-24T05:59:05;2.40;;;0.80;;
45322;SDS011;31382;50.200;8.674;2023-04-24T06:04:06;1.73;;;0.80;;
45322;SDS011;31382;50.200;8.674;2023-04-24T06:09:08;3.88;;;0.63;;
45322;SDS011;31382;50.200;8.674;2023-04-24T06:14:09;1.88;;;1.08;;
45322;SDS011;31382;50.200;8.674;2023-04-24T06:19:11;1.30;;;0.80;;
45322;SDS011;31382;50.200;8.674;2023-04-24T06:24:13;3.25;;;1.08;;
45322;SDS011;31382;50.200;8.674;2023-04-24T06:29:15;3.13;;;1.10;;
45322;SDS011;31382;50.200;8.674;2023-04-24T06:34:16;1.85;;;0.95;;
45322;SDS011;31382;50.200;8.674;2023-04-24T06:39:18;1.60;;;1.30;;
45322;SDS011;31382;50.200;8.674;2023-04-24T06:44:19;1.42;;;1.23;;
45322;SDS011;31382;50.200;8.674;2023-04-24T06:49:21;2.25;;;1.23;;
45322;SDS011;31382;50.200;8.674;2023-04-24T06:54:22;2.67;;;1.33;;
45322;SDS011;31382;50.200;8.674;2023-04-24T06:59:24;1.67;;;1.00;;
45322;SDS011;31382;50.200;8.674;2023-04-24T07:04:26;3.17;;;1.67;;
45322;SDS011;31382;50.200;8.674;2023-04-24T07:09:27;1.50;;;1.00;;
45322;SDS011;31382;50.200;8.674;2023-04-24T07:14:29;2.40;;;1.65;;
45322;SDS011;31382;50.200;8.674;2023-04-24T07:19:30;1.75;;;1.10;;
45322;SDS011;31382;50.200;8.674;2023-04-24T07:24:32;4.30;;;1.73;;
45322;SDS011;31382;50.200;8.674;2023-04-24T07:29:34;2.72;;;1.50;;
45322;SDS011;31382;50.200;8.674;2023-04-24T07:34:35;1.20;;;0.90;;
45322;SDS011;31382;50.200;8.674;2023-04-24T07:39:36;2.40;;;0.80;;
45322;SDS011;31382;50.200;8.674;2023-04-24T07:44:38;0.60;;;0.60;;
45322;SDS011;31382;50.200;8.674;2023-04-24T07:49:39;1.55;;;1.05;;
45322;SDS011;31382;50.200;8.674;2023-04-24T07:54:42;1.10;;;0.80;;
45322;SDS011;31382;50.200;8.674;2023-04-24T07:59:44;1.63;;;0.95;;
45322;SDS011;31382;50.200;8.674;2023-04-24T08:04:46;1.20;;;0.70;;
45322;SDS011;31382;50.200;8.674;2023-04-24T08:09:47;2.65;;;1.10;;
45322;SDS011;31382;50.200;8.674;2023-04-24T08:14:49;1.45;;;0.93;;
45322;SDS011;31382;50.200;8.674;2023-04-24T08:19:50;1.60;;;0.95;;
45322;SDS011;31382;50.200;8.674;2023-04-24T08:24:53;1.38;;;0.73;;
45322;SDS011;31382;50.200;8.674;2023-04-24T08:29:56;4.63;;;0.65;;
45322;SDS011;31382;50.200;8.674;2023-04-24T08:34:58;1.48;;;0.73;;
45322;SDS011;31382;50.200;8.674;2023-04-24T08:40:01;1.08;;;0.80;;
45322;SDS011;31382;50.200;8.674;2023-04-24T08:45:06;1.75;;;0.73;;
45322;SDS011;31382;50.200;8.674;2023-04-24T08:50:08;2.45;;;0.70;;
45322;SDS011;31382;50.200;8.674;2023-04-24T08:55:13;2.97;;;0.90;;
45322;SDS011;31382;50.200;8.674;2023-04-24T09:00:16;3.53;;;0.70;;
45322;SDS011;31382;50.200;8.674;2023-04-24T09:05:18;3.17;;;0.70;;
45322;SDS011;31382;50.200;8.674;2023-04-24T09:10:22;3.55;;;0.82;;
45322;SDS011;31382;50.200;8.674;2023-04-24T09:15:24;1.58;;;0.70;;
45322;SDS011;31382;50.200;8.674;2023-04-24T09:20:25;1.20;;;0.75;;
45322;SDS011;31382;50.200;8.674;2023-04-24T09:25:33;4.15;;;0.80;;
45322;SDS011;31382;50.200;8.674;2023-04-24T09:30:37;2.78;;;0.70;;
45322;SDS011;31382;50.200;8.674;2023-04-24T09:35:41;1.00;;;0.70;;
45322;SDS011;31382;50.200;8.674;2023-04-24T09:40:44;2.00;;;0.80;;
45322;SDS011;31382;50.200;8.674;2023-04-24T09:45:45;1.20;;;0.80;;
45322;SDS011;31382;50.200;8.674;2023-04-24T09:50:47;2.85;;;0.77;;
45322;SDS011;31382;50.200;8.674;2023-04-24T09:55:53;1.73;;;0.60;;
45322;SDS011;31382;50.200;8.674;2023-04-24T10:00:55;0.70;;;0.50;;
45322;SDS011;31382;50.200;8.674;2023-04-24T10:05:58;1.40;;;0.70;;
45322;SDS011;31382;50.200;8.674;2023-04-24T10:11:00;1.17;;;0.85;;
45322;SDS011;31382;50.200;8.674;2023-04-24T10:16:03;1.55;;;0.75;;
45322;SDS011;31382;50.200;8.674;2023-04-24T10:21:05;1.55;;;0.80;;
45322;SDS011;31382;50.200;8.674;2023-04-24T10:26:08;1.38;;;0.80;;
45322;SDS011;31382;50.200;8.674;2023-04-24T10:31:10;2.33;;;0.77;;
45322;SDS011;31382;50.200;8.674;2023-04-24T10:36:13;1.98;;;0.90;;
45322;SDS011;31382;50.200;8.674;2023-04-24T10:41:16;2.22;;;1.67;;
45322;SDS011;31382;50.200;8.674;2023-04-24T10:46:21;2.75;;;1.17;;
45322;SDS011;31382;50.200;8.674;2023-04-24T10:51:23;3.25;;;1.02;;
45322;SDS011;31382;50.200;8.674;2023-04-24T10:56:26;2.13;;;1.00;;
45322;SDS011;31382;50.200;8.674;2023-04-24T11:01:29;1.75;;;1.13;;
45322;SDS011;31382;50.200;8.674;2023-04-24T11:06:34;1.50;;;0.63;;
45322;SDS011;31382;50.200;8.674;2023-04-24T11:11:37;2.85;;;1.13;;
45322;SDS011;31382;50.200;8.674;2023-04-24T11:16:51;1.70;;;0.65;;
45322;SDS011;31382;50.200;8.674;2023-04-24T11:21:58;2.03;;;1.17;;
45322;SDS011;31382;50.200;8.674;2023-04-24T11:32:25;1.63;;;0.40;;
45322;SDS011;31382;50.200;8.674;2023-04-24T11:37:42;0.28;;;0.28;;
45322;SDS011;31382;50.200;8.674;2023-04-24T11:42:48;0.75;;;0.50;;
45322;SDS011;31382;50.200;8.674;2023-04-24T11:47:51;3.92;;;0.30;;
45322;SDS011;31382;50.200;8.674;2023-04-24T11:52:53;0.50;;;0.30;;
45322;SDS011;31382;50.200;8.674;2023-04-24T11:57:58;0.60;;;0.40;;
45322;SDS011;31382;50.200;8.674;2023-04-24T12:03:04;1.67;;;0.30;;
45322;SDS011;31382;50.200;8.674;2023-04-24T12:08:10;0.70;;;0.30;;
45322;SDS011;31382;50.200;8.674;2023-04-24T12:13:11;1.50;;;0.50;;
45322;SDS011;31382;50.200;8.674;2023-04-24T12:18:14;2.50;;;0.40;;
45322;SDS011;31382;50.200;8.674;2023-04-24T12:23:34;0.80;;;0.40;;
45322;SDS011;31382;50.200;8.674;2023-04-24T12:28:37;0.70;;;0.50;;
45322;SDS011;31382;50.200;8.674;2023-04-24T12:33:39;1.35;;;0.50;;
45322;SDS011;31382;50.200;8.674;2023-04-24T12:38:41;0.98;;;0.40;;
45322;SDS011;31382;50.200;8.674;2023-04-24T12:43:52;0.82;;;0.43;;
45322;SDS011;31382;50.200;8.674;2023-04-24T12:48:54;2.70;;;0.65;;
45322;SDS011;31382;50.200;8.674;2023-04-24T12:53:56;2.67;;;0.57;;
45322;SDS011;31382;50.200;8.674;2023-04-24T12:58:57;3.08;;;0.50;;
45322;SDS011;31382;50.200;8.674;2023-04-24T13:03:59;3.00;;;0.60;;
45322;SDS011;31382;50.200;8.674;2023-04-24T13:09:00;2.78;;;0.68;;
45322;SDS011;31382;50.200;8.674;2023-04-24T13:14:02;0.50;;;0.50;;
45322;SDS011;31382;50.200;8.674;2023-04-24T13:19:03;2.55;;;0.80;;
45322;SDS011;31382;50.200;8.674;2023-04-24T13:24:05;1.95;;;0.90;;
45322;SDS011;31382;50.200;8.674;2023-04-24T13:29:08;2.55;;;0.90;;
45322;SDS011;31382;50.200;8.674;2023-04-24T13:34:10;4.28;;;1.10;;
45322;SDS011;31382;50.200;8.674;2023-04-24T13:39:12;3.35;;;1.05;;
45322;SDS011;31382;50.200;8.674;2023-04-24T13:44:14;3.63;;;0.65;;
45322;SDS011;31382;50.200;8.674;2023-04-24T13:49:16;1.80;;;0.70;;
45322;SDS011;31382;50.200;8.674;2023-04-24T13:54:18;5.38;;;1.15;;
45322;SDS011;31382;50.200;8.674;2023-04-24T13:59:20;2.30;;;1.13;;
45322;SDS011;31382;50.200;8.674;2023-04-24T14:04:22;3.00;;;1.60;;
45322;SDS011;31382;50.200;8.674;2023-04-24T14:09:24;2.58;;;1.23;;
45322;SDS011;31382;50.200;8.674;2023-04-24T14:14:25;7.35;;;1.35;;
45322;SDS011;31382;50.200;8.674;2023-04-24T14:19:27;3.50;;;1.27;;
45322;SDS011;31382;50.200;8.674;2023-04-24T14:24:29;3.28;;;1.02;;
45322;SDS011;31382;50.200;8.674;2023-04-24T14:29:30;3.03;;;0.90;;
45322;SDS011;31382;50.200;8.674;2023-04-24T14:34:33;1.33;;;1.00;;
45322;SDS011;31382;50.200;8.674;2023-04-24T14:39:35;4.13;;;1.10;;
45322;SDS011;31382;50.200;8.674;2023-04-24T14:44:36;2.45;;;1.02;;
45322;SDS011;31382;50.200;8.674;2023-04-24T14:49:38;1.30;;;0.80;;
45322;SDS011;31382;50.200;8.674;2023-04-24T14:54:39;2.33;;;0.80;;
45322;SDS011;31382;50.200;8.674;2023-04-24T14:59:41;2.28;;;0.80;;
45322;SDS011;31382;50.200;8.674;2023-04-24T15:04:42;2.78;;;1.05;;
45322;SDS011;31382;50.200;8.674;2023-04-24T15:09:44;4.72;;;1.52;;
45322;SDS011;31382;50.200;8.674;2023-04-24T15:14:48;2.28;;;0.85;;
45322;SDS011;31382;50.200;8.674;2023-04-24T15:19:49;1.90;;;0.60;;
45322;SDS011;31382;50.200;8.674;2023-04-24T15:24:50;1.40;;;1.00;;
45322;SDS011;31382;50.200;8.674;2023-04-24T15:29:52;3.55;;;0.90;;
45322;SDS011;31382;50.200;8.674;2023-04-24T15:34:54;5.03;;;1.33;;
45322;SDS011;31382;50.200;8.674;2023-04-24T15:40:08;1.95;;;1.02;;
45322;SDS011;31382;50.200;8.674;2023-04-24T15:45:13;2.95;;;1.40;;
45322;SDS011;31382;50.200;8.674;2023-04-24T15:50:15;4.93;;;1.10;;
45322;SDS011;31382;50.200;8.674;2023-04-24T15:55:20;3.50;;;0.70;;
45322;SDS011;31382;50.200;8.674;2023-04-24T16:00:22;2.65;;;0.93;;
45322;SDS011;31382;50.200;8.674;2023-04-24T16:05:23;1.98;;;0.93;;
45322;SDS011;31382;50.200;8.674;2023-04-24T16:10:25;2.80;;;1.10;;
45322;SDS011;31382;50.200;8.674;2023-04-24T16:15:26;2.00;;;1.00;;
45322;SDS011;31382;50.200;8.674;2023-04-24T16:20:28;3.67;;;0.90;;
45322;SDS011;31382;50.200;8.674;2023-04-24T16:25:29;3.70;;;1.05;;
45322;SDS011;31382;50.200;8.674;2023-04-24T16:30:31;1.88;;;1.00;;
45322;SDS011;31382;50.200;8.674;2023-04-24T16:35:32;2.75;;;1.05;;
45322;SDS011;31382;50.200;8.674;2023-04-24T16:40:33;4.53;;;1.30;;
45322;SDS011;31382;50.200;8.674;2023-04-24T16:45:35;1.55;;;0.90;;
45322;SDS011;31382;50.200;8.674;2023-04-24T16:50:36;2.40;;;0.95;;
45322;SDS011;31382;50.200;8.674;2023-04-24T16:55:38;2.45;;;0.70;;
45322;SDS011;31382;50.200;8.674;2023-04-24T17:00:39;1.67;;;0.98;;
45322;SDS011;31382;50.200;8.674;2023-04-24T17:05:41;1.65;;;0.80;;
45322;SDS011;31382;50.200;8.674;2023-04-24T17:10:42;1.92;;;1.10;;
45322;SDS011;31382;50.200;8.674;2023-04-24T17:15:43;2.38;;;1.00;;
45322;SDS011;31382;50.200;8.674;2023-04-24T17:20:45;3.38;;;1.10;;
45322;SDS011;31382;50.200;8.674;2023-04-24T17:25:46;5.65;;;1.45;;
45322;SDS011;31382;50.200;8.674;2023-04-24T17:30:48;1.98;;;0.90;;
45322;SDS011;31382;50.200;8.674;2023-04-24T17:35:50;1.45;;;0.80;;
45322;SDS011;31382;50.200;8.674;2023-04-24T17:40:51;4.75;;;1.10;;
45322;SDS011;31382;50.200;8.674;2023-04-24T17:45:53;2.70;;;1.10;;
45322;SDS011;31382;50.200;8.674;2023-04-24T17:50:59;2.83;;;1.27;;
45322;SDS011;31382;50.200;8.674;2023-04-24T17:56:01;3.78;;;1.30;;
45322;SDS011;31382;50.200;8.674;2023-04-24T18:01:03;3.38;;;1.27;;
45322;SDS011;31382;50.200;8.674;2023-04-24T18:06:05;1.70;;;1.23;;
45322;SDS011;31382;50.200;8.674;2023-04-24T18:11:07;2.45;;;1.52;;
45322;SDS011;31382;50.200;8.674;2023-04-24T18:16:08;2.33;;;1.30;;
45322;SDS011;31382;50.200;8.674;2023-04-24T18:21:10;2.13;;;1.13;;
45322;SDS011;31382;50.200;8.674;2023-04-24T18:26:11;2.95;;;1.48;;
45322;SDS011;31382;50.200;8.674;2023-04-24T18:31:17;4.72;;;1.80;;
45322;SDS011;31382;50.200;8.674;2023-04-24T18:36:18;3.17;;;1.85;;
45322;SDS011;31382;50.200;8.674;2023-04-24T18:41:20;1.50;;;1.25;;
45322;SDS011;31382;50.200;8.674;2023-04-24T18:46:21;3.17;;;1.85;;
45322;SDS011;31382;50.200;8.674;2023-04-24T18:51:23;4.50;;;2.33;;
45322;SDS011;31382;50.200;8.674;2023-04-24T18:56:24;2.80;;;1.65;;
45322;SDS011;31382;50.200;8.674;2023-04-24T19:01:25;3.97;;;1.60;;
45322;SDS011;31382;50.200;8.674;2023-04-24T19:06:27;4.88;;;1.77;;
45322;SDS011;31382;50.200;8.674;2023-04-24T19:11:28;3.00;;;2.13;;
45322;SDS011;31382;50.200;8.674;2023-04-24T19:16:30;2.42;;;1.73;;
45322;SDS011;31382;50.200;8.674;2023-04-24T19:21:32;2.65;;;2.00;;
45322;SDS011;31382;50.200;8.674;2023-04-24T19:26:34;3.22;;;2.35;;
45322;SDS011;31382;50.200;8.674;2023-04-24T19:31:35;2.75;;;2.00;;
45322;SDS011;31382;50.200;8.674;2023-04-24T19:36:36;3.10;;;2.45;;
45322;SDS011;31382;50.200;8.674;2023-04-24T19:41:38;2.95;;;1.70;;
45322;SDS011;31382;50.200;8.674;2023-04-24T19:46:39;3.38;;;2.30;;
45322;SDS011;31382;50.200;8.674;2023-04-24T19:51:41;5.28;;;3.33;;
45322;SDS011;31382;50.200;8.674;2023-04-24T19:56:43;4.30;;;2.75;;
45322;SDS011;31382;50.200;8.674;2023-04-24T20:01:44;5.85;;;2.92;;
45322;SDS011;31382;50.200;8.674;2023-04-24T20:06:46;5.68;;;3.47;;
45322;SDS011;31382;50.200;8.674;2023-04-24T20:11:47;5.57;;;3.35;;
45322;SDS011;31382;50.200;8.674;2023-04-24T20:16:51;5.03;;;3.17;;
45322;SDS011;31382;50.200;8.674;2023-04-24T20:21:54;5.20;;;3.28;;
45322;SDS011;31382;50.200;8.674;2023-04-24T20:26:55;4.90;;;2.78;;
45322;SDS011;31382;50.200;8.674;2023-04-24T20:31:57;3.45;;;2.63;;
45322;SDS011;31382;50.200;8.674;2023-04-24T20:36:58;4.13;;;2.20;;
45322;SDS011;31382;50.200;8.674;2023-04-24T20:42:00;4.55;;;2.17;;
45322;SDS011;31382;50.200;8.674;2023-04-24T20:47:01;4.95;;;2.00;;
45322;SDS011;31382;50.200;8.674;2023-04-24T20:52:02;3.13;;;2.25;;
45322;SDS011;31382;50.200;8.674;2023-04-24T20:57:04;2.95;;;2.10;;
45322;SDS011;31382;50.200;8.674;2023-04-24T21:02:05;4.60;;;1.70;;
45322;SDS011;31382;50.200;8.674;2023-04-24T21:07:07;4.18;;;2.45;;
45322;SDS011;31382;50.200;8.674;2023-04-24T21:12:10;3.22;;;1.85;;
45322;SDS011;31382;50.200;8.674;2023-04-24T21:17:11;5.30;;;1.77;;
45322;SDS011;31382;50.200;8.674;2023-04-24T21:22:13;6.93;;;1.63;;
45322;SDS011;31382;50.200;8.674;2023-04-24T21:27:14;4.40;;;2.00;;
45322;SDS011;31382;50.200;8.674;2023-04-24T21:32:15;3.72;;;2.60;;
45322;SDS011;31382;50.200;8.674;2023-04-24T21:37:17;3.22;;;1.70;;
45322;SDS011;31382;50.200;8.674;2023-04-24T21:42:18;3.45;;;1.88;;
45322;SDS011;31382;50.200;8.674;2023-04-24T21:47:20;5.25;;;2.33;;
45322;SDS011;31382;50.200;8.674;2023-04-24T21:52:21;5.82;;;2.17;;
45322;SDS011;31382;50.200;8.674;2023-04-24T21:57:23;8.05;;;2.47;;
45322;SDS011;31382;50.200;8.674;2023-04-24T22:02:24;4.05;;;2.35;;
45322;SDS011;31382;50.200;8.674;2023-04-24T22:07:25;6.53;;;2.72;;
45322;SDS011;31382;50.200;8.674;2023-04-24T22:12:27;4.72;;;2.72;;
45322;SDS011;31382;50.200;8.674;2023-04-24T22:17:28;4.88;;;3.40;;
45322;SDS011;31382;50.200;8.674;2023-04-24T22:22:30;5.20;;;3.03;;
45322;SDS011;31382;50.200;8.674;2023-04-24T22:27:31;8.60;;;3.58;;
45322;SDS011;31382;50.200;8.674;2023-04-24T22:32:35;6.75;;;3.67;;
45322;SDS011;31382;50.200;8.674;2023-04-24T22:37:37;6.75;;;4.60;;
45322;SDS011;31382;50.200;8.674;2023-04-24T22:42:39;7.07;;;4.40;;
45322;SDS011;31382;50.200;8.674;2023-04-24T22:47:40;9.35;;;4.63;;
45322;SDS011;31382;50.200;8.674;2023-04-24T22:52:42;8.18;;;5.30;;
45322;SDS011;31382;50.200;8.674;2023-04-24T22:57:44;11.73;;;5.10;;
45322;SDS011;31382;50.200;8.674;2023-04-24T23:02:45;9.57;;;5.88;;
45322;SDS011;31382;50.200;8.674;2023-04-24T23:07:47;11.15;;;5.70;;
45322;SDS011;31382;50.200;8.674;2023-04-24T23:12:48;10.70;;;5.85;;
45322;SDS011;31382;50.200;8.674;2023-04-24T23:17:50;10.05;;;6.45;;
45322;SDS011;31382;50.200;8.674;2023-04-24T23:22:51;11.05;;;6.40;;
45322;SDS011;31382;50.200;8.674;2023-04-24T23:27:53;10.80;;;5.82;;
45322;SDS011;31382;50.200;8.674;2023-04-24T23:32:55;11.77;;;6.43;;
45322;SDS011;31382;50.200;8.674;2023-04-24T23:37:56;13.05;;;6.60;;
45322;SDS011;31382;50.200;8.674;2023-04-24T23:42:58;12.68;;;6.53;;
45322;SDS011;31382;50.200;8.674;2023-04-24T23:48:07;8.98;;;5.35;;
45322;SDS011;31382;50.200;8.674;2023-04-24T23:53:09;11.20;;;7.30;;
45322;SDS011;31382;50.200;8.674;2023-04-24T23:58:10;10.02;;;6.15;;
